Graceland Heights, Indiana
Current Conditions -  °F | °C
As of 6:53 AM on Tuesday 21 Oct 2014 (Local Time) from KMIE Reporting Station
Overcast Overcast  
Wind Chill: 45°   Ceiling: 4300
Heat Index: 49°   Visibility: 10mi
Dew Point: 44°   Wind: 8mph
Humidity: 83%   Direction: 320°NW
Pressure: 29.99"   Gusts: NA
Location:  39.9342°N, 85.1531°W
Report Text: KMIE 211053Z 32007KT 10SM BKN043 OVC055 09/07 A2999 RMK AO2 SLP152 T00940067
Loading
Personal Weather Stations






























Interactive Weather Map
Tropical Storm Tracking
New forecast layout! Learn more

10-Day Weather Forecast

Advertisements
Track Severe Weather on mobile